Time;durP1;ratioP1;P1;durP2;ratioP2;P2;SDS_P1;SDS_P2;PMS_P1;PMS_P2;Temp;Humidity;BMP_temperature;BMP_pressure;BME280_temperature;BME280_humidity;BME280_pressure;Samples;Min_cycle;Max_cycle;Signal;HPM_P1;HPM_P2
2020/12/03 00:01:03;;;;;;;24.13;10.18;;;9.30;78.20;;;;;;5095353;28;20032;-69
2020/12/03 00:03:33;;;;;;;23.15;9.55;;;9.30;78.20;;;;;;5094517;28;20093;-69
2020/12/03 00:06:32;;;;;;;25.75;9.88;;;9.30;78.20;;;;;;5095081;28;20077;-69
2020/12/03 00:09:19;;;;;;;30.15;11.32;;;9.30;78.30;;;;;;5069796;28;20116;-69
2020/12/03 00:11:52;;;;;;;30.15;13.10;;;9.30;78.20;;;;;;5094762;28;20452;-69
2020/12/03 00:14:18;;;;;;;22.95;9.98;;;9.30;78.30;;;;;;5094875;28;20028;-69
2020/12/03 00:16:44;;;;;;;26.58;11.95;;;9.30;78.30;;;;;;5094135;28;20040;-69
2020/12/03 00:19:16;;;;;;;29.27;12.50;;;9.30;78.40;;;;;;5094887;28;20051;-69
2020/12/03 00:21:48;;;;;;;24.20;11.70;;;9.30;78.40;;;;;;5095020;28;20500;-69
2020/12/03 00:24:18;;;;;;;26.00;10.88;;;9.40;78.40;;;;;;5093893;28;20024;-69
2020/12/03 00:26:44;;;;;;;25.98;10.75;;;9.40;78.40;;;;;;5094780;28;20081;-69
2020/12/03 00:29:10;;;;;;;27.60;11.88;;;9.40;78.20;;;;;;5094232;28;20391;-69
2020/12/03 00:31:35;;;;;;;21.88;9.95;;;9.40;78.20;;;;;;5094132;28;20430;-69
2020/12/03 00:34:06;;;;;;;22.88;10.52;;;9.40;78.20;;;;;;5094517;28;20036;-69
2020/12/03 00:36:32;;;;;;;29.58;13.00;;;9.40;78.20;;;;;;5094785;28;20035;-69
2020/12/03 00:38:58;;;;;;;27.83;9.35;;;9.40;78.20;;;;;;5094195;28;20490;-69
2020/12/03 00:41:23;;;;;;;26.65;10.15;;;9.40;78.20;;;;;;5094550;28;20024;-69
2020/12/03 00:43:49;;;;;;;30.20;12.98;;;9.40;78.20;;;;;;5093901;28;20486;-68
2020/12/03 00:46:15;;;;;;;12.70;5.90;;;9.40;78.20;;;;;;5094592;28;20049;-69
2020/12/03 00:48:41;;;;;;;23.35;9.18;;;9.50;78.30;;;;;;5093077;28;20471;-69
2020/12/03 00:51:11;;;;;;;29.98;13.77;;;9.50;78.20;;;;;;5092524;28;20015;-69
2020/12/03 00:53:41;;;;;;;27.98;13.05;;;9.40;78.10;;;;;;5093031;28;20035;-69
2020/12/03 00:56:08;;;;;;;28.50;11.95;;;9.50;78.10;;;;;;5092875;28;20024;-69
2020/12/03 00:58:34;;;;;;;27.70;13.30;;;9.50;78.20;;;;;;5092100;28;20498;-69
2020/12/03 01:01:00;;;;;;;23.60;9.77;;;9.50;78.10;;;;;;5094069;28;20030;-69
2020/12/03 01:03:26;;;;;;;25.75;11.57;;;9.50;78.10;;;;;;5094169;28;20123;-69
2020/12/03 01:05:52;;;;;;;31.73;12.95;;;9.40;78.00;;;;;;5093297;28;20090;-69
2020/12/03 01:08:17;;;;;;;27.70;11.75;;;9.50;78.10;;;;;;5093973;28;20016;-69
2020/12/03 01:10:43;;;;;;;31.88;11.95;;;9.50;78.10;;;;;;5093878;28;20031;-69
2020/12/03 01:13:09;;;;;;;34.92;14.93;;;9.50;78.10;;;;;;5093289;28;20036;-69
2020/12/03 01:15:34;;;;;;;27.83;10.80;;;9.40;78.00;;;;;;5094027;28;20039;-69
2020/12/03 01:18:00;;;;;;;28.13;11.13;;;9.50;78.10;;;;;;5093833;28;20494;-69
2020/12/03 01:20:28;;;;;;;18.58;8.85;;;9.50;78.20;;;;;;5092893;28;20055;-69
2020/12/03 01:22:54;;;;;;;19.13;8.65;;;9.50;78.20;;;;;;5093648;28;20392;-69
2020/12/03 01:25:23;;;;;;;28.70;13.55;;;9.50;78.30;;;;;;5093762;28;20056;-69
2020/12/03 01:27:50;;;;;;;26.83;11.35;;;9.40;78.20;;;;;;5093114;28;20379;-69
2020/12/03 01:30:17;;;;;;;25.85;12.73;;;9.40;78.20;;;;;;5093707;28;20032;-69
2020/12/03 01:32:44;;;;;;;23.15;10.32;;;9.40;78.20;;;;;;5093688;28;20391;-69
2020/12/03 01:35:11;;;;;;;22.58;11.63;;;9.40;78.40;;;;;;5093022;28;20028;-69
2020/12/03 01:37:37;;;;;;;28.17;13.18;;;9.40;78.50;;;;;;5093672;28;20024;-69
2020/12/03 01:40:06;;;;;;;28.85;7.78;;;9.40;78.40;;;;;;5093005;28;20032;-69
2020/12/03 01:42:32;;;;;;;19.88;10.05;;;9.40;78.60;;;;;;5093598;28;20044;-69
2020/12/03 01:44:58;;;;;;;22.83;9.27;;;9.40;78.60;;;;;;5092728;28;20027;-69
2020/12/03 01:47:37;;;;;;;20.55;9.07;;;9.30;78.40;;;;;;5092760;28;20039;-69
2020/12/03 01:50:06;;;;;;;21.70;9.90;;;9.40;78.50;;;;;;5093440;28;20039;-70
2020/12/03 01:52:35;;;;;;;21.52;9.88;;;9.30;78.40;;;;;;5093312;28;20555;-69
2020/12/03 01:55:01;;;;;;;7.05;3.22;;;9.30;78.40;;;;;;5092559;28;20036;-69
2020/12/03 01:57:47;;;;;;;23.13;9.13;;;9.30;78.40;;;;;;5093493;28;20111;-69
2020/12/03 02:00:15;;;;;;;24.30;10.63;;;9.30;79.00;;;;;;5093425;28;20024;-69
2020/12/03 02:02:52;;;;;;;26.27;10.60;;;9.30;78.20;;;;;;5092479;28;20476;-69
2020/12/03 02:05:25;;;;;;;15.85;7.15;;;9.40;78.40;;;;;;5093589;28;20423;-69
2020/12/03 02:07:51;;;;;;;20.85;8.07;;;9.30;78.40;;;;;;5093463;28;20400;-69
2020/12/03 02:10:19;;;;;;;20.00;9.23;;;9.30;78.30;;;;;;5092665;28;20020;-69
2020/12/03 02:12:45;;;;;;;14.35;6.68;;;9.30;78.30;;;;;;5093264;28;20498;-69
2020/12/03 02:15:11;;;;;;;15.95;5.95;;;9.30;78.30;;;;;;5092393;28;20028;-69
2020/12/03 02:17:40;;;;;;;24.45;10.20;;;9.30;78.20;;;;;;5093141;28;20032;-69
2020/12/03 02:20:14;;;;;;;6.05;3.58;;;9.30;78.20;;;;;;5093153;28;20044;-69
2020/12/03 02:22:40;;;;;;;13.63;6.10;;;9.30;78.90;;;;;;5092186;28;20036;-69
2020/12/03 02:25:08;;;;;;;16.48;5.80;;;9.30;78.20;;;;;;5093151;28;20028;-69
2020/12/03 02:27:35;;;;;;;28.40;9.73;;;9.20;78.40;;;;;;5093094;28;20392;-69
2020/12/03 02:30:02;;;;;;;30.05;11.65;;;9.20;78.40;;;;;;5092540;28;20052;-69
2020/12/03 02:32:28;;;;;;;15.88;6.45;;;9.20;78.50;;;;;;5093034;28;20028;-69
2020/12/03 02:34:53;;;;;;;10.82;5.00;;;9.30;78.50;;;;;;5093060;28;20024;-69
2020/12/03 02:37:20;;;;;;;9.50;4.13;;;9.20;78.40;;;;;;5092383;28;20032;-69
2020/12/03 02:39:46;;;;;;;14.52;7.10;;;9.20;78.40;;;;;;5093054;28;20074;-69
2020/12/03 02:42:13;;;;;;;14.98;6.40;;;9.10;78.50;;;;;;5092705;28;20429;-69
2020/12/03 02:44:47;;;;;;;14.38;5.82;;;9.10;78.60;;;;;;5092408;28;20380;-69
2020/12/03 02:47:15;;;;;;;4.28;2.15;;;9.10;78.70;;;;;;5093169;28;20080;-69
2020/12/03 02:49:41;;;;;;;21.98;9.80;;;9.10;78.70;;;;;;5092875;28;20439;-69
2020/12/03 02:52:16;;;;;;;19.67;8.48;;;9.10;79.40;;;;;;5092373;28;20043;-69
2020/12/03 02:54:42;;;;;;;20.77;7.22;;;9.20;78.90;;;;;;5092919;28;20414;-69
2020/12/03 02:57:08;;;;;;;22.25;9.23;;;9.10;78.80;;;;;;5095324;28;20057;-69
2020/12/03 02:59:34;;;;;;;19.75;7.82;;;9.10;78.90;;;;;;5095570;28;20032;-69
2020/12/03 03:02:00;;;;;;;25.45;11.00;;;9.10;79.00;;;;;;5096302;28;20040;-69
2020/12/03 03:04:26;;;;;;;18.38;8.25;;;9.10;79.10;;;;;;5095701;28;20028;-69
2020/12/03 03:06:52;;;;;;;12.63;5.47;;;9.10;79.00;;;;;;5096212;28;20034;-69
2020/12/03 03:09:18;;;;;;;10.93;4.93;;;9.10;79.00;;;;;;5096374;28;20029;-69
2020/12/03 03:11:44;;;;;;;18.13;8.25;;;9.10;79.00;;;;;;5095431;28;20464;-69
2020/12/03 03:14:10;;;;;;;24.77;9.38;;;9.10;79.10;;;;;;5096231;28;20028;-69
2020/12/03 03:16:35;;;;;;;19.98;7.50;;;9.20;79.10;;;;;;5096335;28;20032;-69
2020/12/03 03:19:04;;;;;;;10.57;5.28;;;9.10;79.00;;;;;;5095489;28;20054;-69
2020/12/03 03:21:32;;;;;;;13.98;5.38;;;9.20;79.00;;;;;;5095866;28;20048;-69
2020/12/03 03:23:58;;;;;;;18.00;7.00;;;9.10;79.00;;;;;;5095821;28;20039;-69
2020/12/03 03:26:24;;;;;;;20.30;8.45;;;9.10;79.20;;;;;;5095332;28;20028;-69
2020/12/03 03:28:50;;;;;;;22.25;10.07;;;9.10;79.20;;;;;;5095965;28;20058;-69
2020/12/03 03:31:17;;;;;;;14.70;6.88;;;9.10;79.30;;;;;;5095885;28;20039;-69
2020/12/03 03:33:43;;;;;;;20.35;8.60;;;9.10;79.30;;;;;;5095048;28;20040;-69
2020/12/03 03:36:09;;;;;;;19.15;6.63;;;9.10;79.40;;;;;;5095818;28;20036;-69
2020/12/03 03:38:35;;;;;;;23.67;8.88;;;9.10;79.40;;;;;;5095718;28;20028;-69
2020/12/03 03:41:00;;;;;;;35.45;12.95;;;9.10;79.50;;;;;;5095137;28;20047;-69
2020/12/03 03:43:26;;;;;;;26.20;10.57;;;9.10;79.40;;;;;;5095497;28;20438;-69
2020/12/03 03:45:52;;;;;;;12.68;5.97;;;9.10;79.50;;;;;;5095587;28;20035;-69
2020/12/03 03:48:17;;;;;;;22.88;9.68;;;9.10;79.30;;;;;;5094864;28;20028;-69
2020/12/03 03:50:43;;;;;;;15.00;5.22;;;9.10;79.40;;;;;;5095487;28;20419;-69
2020/12/03 03:53:09;;;;;;;21.35;7.55;;;9.10;79.50;;;;;;5095385;28;20081;-69
2020/12/03 03:55:34;;;;;;;22.55;7.70;;;9.10;79.60;;;;;;5094878;28;20044;-69
2020/12/03 03:58:00;;;;;;;9.20;4.55;;;9.10;79.80;;;;;;5095187;28;20436;-69
2020/12/03 04:00:26;;;;;;;14.07;5.00;;;9.00;79.90;;;;;;5095289;28;20028;-69
2020/12/03 04:02:51;;;;;;;23.40;9.77;;;9.00;79.90;;;;;;5094503;28;20043;-69
2020/12/03 04:05:20;;;;;;;32.25;10.32;;;9.00;80.00;;;;;;5095206;28;20384;-69
2020/12/03 04:07:46;;;;;;;31.25;10.68;;;9.00;80.10;;;;;;5093895;28;20038;-69
2020/12/03 04:10:12;;;;;;;18.13;7.57;;;9.00;80.20;;;;;;5095255;28;20111;-69
2020/12/03 04:12:39;;;;;;;30.48;13.07;;;9.00;80.10;;;;;;5095029;28;20552;-69
2020/12/03 04:15:06;;;;;;;28.40;10.40;;;9.00;80.10;;;;;;5094347;28;20117;-69
2020/12/03 04:17:35;;;;;;;17.65;5.32;;;9.10;80.10;;;;;;5094977;28;20613;-69
2020/12/03 04:20:03;;;;;;;10.25;5.95;;;9.10;80.10;;;;;;5094850;28;20056;-69
2020/12/03 04:22:29;;;;;;;32.05;8.38;;;9.10;80.00;;;;;;5094244;28;20083;-69
2020/12/03 04:24:54;;;;;;;25.70;10.18;;;9.10;80.00;;;;;;5094892;28;20024;-69
2020/12/03 04:27:20;;;;;;;28.75;10.63;;;9.10;80.00;;;;;;5094629;28;20035;-69
2020/12/03 04:29:46;;;;;;;33.53;12.95;;;9.10;79.90;;;;;;5093948;28;20039;-69
2020/12/03 04:32:12;;;;;;;33.17;13.30;;;9.10;79.90;;;;;;5094751;28;20487;-69
2020/12/03 04:34:37;;;;;;;34.63;13.57;;;9.20;79.90;;;;;;5094543;28;20036;-69
2020/12/03 04:37:03;;;;;;;34.92;15.38;;;9.10;79.90;;;;;;5094074;28;20035;-69
2020/12/03 04:39:29;;;;;;;30.35;12.25;;;9.10;79.90;;;;;;5094541;28;20028;-69
2020/12/03 04:41:55;;;;;;;38.25;14.30;;;9.10;79.90;;;;;;5094602;28;20032;-69
2020/12/03 04:44:28;;;;;;;31.38;13.00;;;9.20;80.00;;;;;;5093900;28;20111;-69
2020/12/03 04:47:02;;;;;;;21.60;7.72;;;9.20;79.90;;;;;;5094461;28;20116;-69
2020/12/03 04:49:35;;;;;;;28.42;11.32;;;9.20;79.90;;;;;;5094440;28;20429;-69
2020/12/03 04:52:23;;;;;;;19.07;8.27;;;9.20;79.80;;;;;;5093825;28;20024;-69
2020/12/03 04:55:01;;;;;;;34.63;12.80;;;9.20;79.70;;;;;;5094376;28;20032;-69
2020/12/03 04:57:42;;;;;;;14.63;6.60;;;9.20;79.60;;;;;;5093606;28;20539;-69
2020/12/03 05:00:33;;;;;;;25.45;10.88;;;9.30;79.70;;;;;;5094272;28;20040;-69
2020/12/03 05:03:41;;;;;;;18.17;8.55;;;9.20;79.70;;;;;;5094133;28;20123;-69
2020/12/03 05:06:27;;;;;;;29.15;9.40;;;9.10;79.60;;;;;;5093142;28;20043;-74
2020/12/03 05:09:02;;;;;;;25.52;10.23;;;9.20;79.80;;;;;;5094315;28;20035;-78
2020/12/03 05:11:38;;;;;;;33.60;11.77;;;9.10;79.80;;;;;;5093363;28;20146;-69
2020/12/03 05:14:14;;;;;;;27.88;12.00;;;9.20;80.00;;;;;;5093952;28;20031;-69
2020/12/03 05:16:52;;;;;;;19.17;8.30;;;9.10;79.90;;;;;;5093822;28;20468;-69
2020/12/03 05:19:32;;;;;;;41.03;14.88;;;9.20;80.00;;;;;;5092562;28;20039;-69
2020/12/03 05:22:08;;;;;;;37.97;13.10;;;9.20;80.00;;;;;;5093834;28;20040;-68
2020/12/03 05:24:33;;;;;;;30.02;12.63;;;9.20;80.00;;;;;;5093733;28;20386;-68
2020/12/03 05:26:59;;;;;;;34.00;13.05;;;9.20;79.90;;;;;;5092923;28;20119;-68
2020/12/03 05:29:24;;;;;;;21.98;7.55;;;9.20;79.80;;;;;;5093876;28;20034;-70
2020/12/03 05:31:52;;;;;;;28.40;12.02;;;9.20;79.80;;;;;;5093814;28;20396;-69
2020/12/03 05:34:20;;;;;;;22.50;5.47;;;9.20;79.80;;;;;;5092903;28;20535;-69
2020/12/03 05:36:55;;;;;;;33.28;15.00;;;9.20;79.70;;;;;;5093755;28;20052;-69
2020/12/03 05:39:25;;;;;;;41.35;14.13;;;9.20;79.80;;;;;;5092690;28;20036;-69
2020/12/03 05:42:00;;;;;;;30.33;10.98;;;9.30;79.90;;;;;;5093562;28;20040;-69
2020/12/03 05:44:43;;;;;;;35.00;10.43;;;9.20;79.80;;;;;;5093640;28;20028;-69
2020/12/03 05:47:28;;;;;;;30.85;11.30;;;9.20;79.80;;;;;;5092970;28;20031;-69
2020/12/03 05:49:59;;;;;;;34.33;7.18;;;9.20;79.90;;;;;;5093519;28;20499;-69
2020/12/03 05:52:27;;;;;;;16.80;7.43;;;9.10;80.00;;;;;;5092510;28;20033;-69
2020/12/03 05:55:06;;;;;;;16.85;7.35;;;9.10;80.20;;;;;;5092898;28;20028;-69
2020/12/03 05:57:50;;;;;;;18.30;7.57;;;9.10;80.50;;;;;;5093335;28;20071;-69
2020/12/03 06:00:18;;;;;;;29.40;11.23;;;9.00;80.50;;;;;;5092698;28;20034;-69
2020/12/03 06:03:02;;;;;;;45.40;14.93;;;9.00;80.60;;;;;;5093433;28;20458;-69
2020/12/03 06:05:34;;;;;;;;;;;9.00;80.80;;;;;;5093592;28;20036;-69
2020/12/03 06:08:27;;;;;;;33.65;11.25;;;9.00;80.90;;;;;;5092578;28;19915;-71
2020/12/03 06:11:15;;;;;;;25.35;9.20;;;8.90;80.90;;;;;;5093028;28;20078;-68
2020/12/03 06:14:11;;;;;;;16.33;6.32;;;8.90;81.10;;;;;;5073134;28;20464;-78
2020/12/03 06:16:45;;;;;;;19.33;8.30;;;8.90;81.20;;;;;;5072575;28;20032;-67
2020/12/03 06:19:27;;;;;;;30.27;12.90;;;8.90;81.30;;;;;;5073175;28;20041;-68
2020/12/03 06:22:03;;;;;;;29.55;10.65;;;8.90;81.50;;;;;;5090793;28;20086;-70
2020/12/03 06:25:00;;;;;;;12.13;6.25;;;8.90;81.60;;;;;;5091610;28;20483;-68
2020/12/03 06:27:41;;;;;;;20.25;8.88;;;8.90;81.60;;;;;;5090022;28;20035;-68
2020/12/03 06:30:29;;;;;;;10.70;4.82;;;8.90;81.60;;;;;;5089662;28;20545;-68
2020/12/03 06:33:16;;;;;;;19.83;8.32;;;8.90;82.30;;;;;;5095223;28;20032;-68
2020/12/03 06:35:49;;;;;;;20.02;9.27;;;8.90;81.80;;;;;;5092682;28;20061;-68
2020/12/03 06:38:34;;;;;;;34.17;12.07;;;8.80;81.90;;;;;;5095449;28;20424;-68
2020/12/03 06:41:10;;;;;;;28.45;10.05;;;8.80;81.90;;;;;;5093114;28;20774;-67
2020/12/03 06:43:46;;;;;;;14.55;7.35;;;8.80;81.90;;;;;;5094475;28;20479;-68
2020/12/03 06:46:29;;;;;;;18.95;7.85;;;8.90;81.90;;;;;;5095625;28;20054;-70
2020/12/03 06:49:29;;;;;;;11.43;5.75;;;8.90;81.90;;;;;;5096766;28;20032;-74
2020/12/03 06:52:03;;;;;;;12.05;5.35;;;8.90;81.90;;;;;;5096585;28;20085;-67
2020/12/03 06:55:04;;;;;;;34.97;13.52;;;8.90;81.90;;;;;;5096397;28;20028;-67
2020/12/03 06:58:07;;;;;;;33.00;11.57;;;8.90;81.90;;;;;;5095919;28;20035;-67
2020/12/03 07:00:57;;;;;;;23.10;10.57;;;8.90;81.90;;;;;;5096379;28;20028;-67
2020/12/03 07:03:52;;;;;;;30.15;11.70;;;8.90;81.90;;;;;;5095158;28;20097;-68
2020/12/03 07:06:39;;;;;;;28.83;13.93;;;9.00;81.90;;;;;;5092514;28;20384;-69
2020/12/03 07:09:46;;;;;;;30.33;12.00;;;9.00;81.90;;;;;;5093208;28;20039;-67
2020/12/03 07:12:30;;;;;;;25.05;11.25;;;9.00;81.90;;;;;;5093698;28;20028;-68
2020/12/03 07:15:29;;;;;;;30.23;13.15;;;9.00;81.70;;;;;;5092650;28;20039;-68
2020/12/03 07:17:58;;;;;;;29.35;13.43;;;9.00;81.80;;;;;;5092471;28;20036;-69
2020/12/03 07:21:06;;;;;;;18.50;8.73;;;9.00;81.70;;;;;;5090311;28;20089;-69
2020/12/03 07:23:44;;;;;;;32.63;13.80;;;9.00;81.70;;;;;;5093330;28;20040;-68
2020/12/03 07:26:31;;;;;;;23.73;11.70;;;9.00;81.70;;;;;;5092765;28;20020;-69
2020/12/03 07:28:59;;;;;;;28.85;13.32;;;9.10;81.80;;;;;;5094274;28;20055;-69
2020/12/03 07:31:36;;;;;;;32.22;14.98;;;9.10;81.70;;;;;;5094207;28;20025;-69
2020/12/03 07:34:17;;;;;;;32.10;14.75;;;9.10;81.70;;;;;;5094542;28;20032;-69
2020/12/03 07:37:04;;;;;;;29.20;13.98;;;9.10;81.50;;;;;;5095122;28;20392;-69
2020/12/03 07:39:35;;;;;;;26.83;11.57;;;9.20;81.50;;;;;;5093055;28;20036;-69
2020/12/03 07:42:15;;;;;;;11.73;6.57;;;9.20;81.30;;;;;;5093194;28;20551;-69
2020/12/03 07:44:53;;;;;;;16.65;7.43;;;9.20;81.10;;;;;;5093931;28;20028;-69
2020/12/03 07:47:31;;;;;;;29.85;14.40;;;9.20;81.00;;;;;;5093566;28;20111;-69
2020/12/03 07:49:57;;;;;;;22.95;9.90;;;9.20;81.10;;;;;;5094069;28;20031;-69
2020/12/03 07:52:27;;;;;;;28.20;13.20;;;9.10;81.10;;;;;;5094409;28;20036;-69
2020/12/03 07:54:54;;;;;;;21.00;10.40;;;9.10;81.30;;;;;;5094713;28;20032;-69
2020/12/03 07:57:53;;;;;;;17.05;6.72;;;9.00;81.40;;;;;;5095476;28;20028;-69
2020/12/03 08:00:35;;;;;;;12.65;5.70;;;9.00;81.50;;;;;;5082847;28;20046;-69
2020/12/03 08:03:03;;;;;;;27.85;12.57;;;9.00;81.70;;;;;;5095348;28;20039;-69
2020/12/03 08:05:49;;;;;;;23.08;10.57;;;8.90;81.80;;;;;;5095410;28;20031;-69
2020/12/03 08:08:21;;;;;;;27.45;13.93;;;8.90;82.00;;;;;;5094787;28;20024;-69
2020/12/03 08:10:47;;;;;;;10.02;5.40;;;8.90;82.10;;;;;;5095357;28;20032;-69
2020/12/03 08:13:40;;;;;;;12.15;7.05;;;8.90;82.20;;;;;;5094998;28;20027;-69
2020/12/03 08:16:39;;;;;;;31.58;8.45;;;8.90;82.30;;;;;;5094348;28;20375;-69
2020/12/03 08:19:31;;;;;;;17.25;7.13;;;8.90;82.40;;;;;;5095121;28;20024;-69
2020/12/03 08:21:57;;;;;;;12.38;6.60;;;8.80;82.60;;;;;;5094039;28;20438;-69
2020/12/03 08:24:30;;;;;;;17.95;8.30;;;8.80;82.80;;;;;;5094973;28;20024;-69
2020/12/03 08:27:04;;;;;;;21.63;8.63;;;8.80;83.00;;;;;;5094275;28;20060;-69
2020/12/03 08:29:47;;;;;;;12.30;6.93;;;8.70;83.00;;;;;;5094220;28;20028;-69
2020/12/03 08:32:13;;;;;;;34.03;16.92;;;8.80;83.10;;;;;;5094873;28;20028;-69
2020/12/03 08:34:42;;;;;;;24.83;9.50;;;8.80;83.10;;;;;;5094633;28;20050;-69
2020/12/03 08:37:14;;;;;;;23.90;9.65;;;8.80;83.10;;;;;;5094008;28;20032;-69
2020/12/03 08:39:42;;;;;;;23.75;10.63;;;8.80;83.10;;;;;;5094752;28;20361;-69
2020/12/03 08:42:10;;;;;;;23.10;9.57;;;8.80;83.10;;;;;;5093940;28;20039;-69
2020/12/03 08:44:36;;;;;;;16.83;7.95;;;8.80;83.10;;;;;;5094496;28;20395;-69
2020/12/03 08:47:11;;;;;;;17.90;7.03;;;8.90;83.00;;;;;;5094460;28;20031;-69
2020/12/03 08:49:42;;;;;;;19.52;9.18;;;8.90;83.00;;;;;;5093554;28;20039;-69
2020/12/03 08:52:08;;;;;;;8.45;4.55;;;8.90;82.80;;;;;;5094843;28;20032;-69
2020/12/03 08:54:33;;;;;;;25.92;9.98;;;8.90;82.80;;;;;;5094140;28;20348;-69
2020/12/03 08:57:08;;;;;;;27.55;13.02;;;9.00;82.80;;;;;;5093439;28;20111;-69
2020/12/03 08:59:36;;;;;;;7.63;4.30;;;9.00;82.70;;;;;;5094465;28;20035;-69
2020/12/03 09:02:12;;;;;;;13.15;7.13;;;8.90;82.60;;;;;;5094101;28;20044;-69
2020/12/03 09:04:52;;;;;;;18.88;8.82;;;9.00;82.80;;;;;;5093559;28;20119;-69
2020/12/03 09:07:21;;;;;;;13.95;5.85;;;8.90;82.70;;;;;;5094330;28;20418;-69
2020/12/03 09:09:48;;;;;;;24.75;11.43;;;8.90;82.80;;;;;;5094120;28;20157;-69
2020/12/03 09:12:30;;;;;;;30.02;13.82;;;8.80;82.90;;;;;;5093451;28;20080;-70
2020/12/03 09:15:04;;;;;;;19.85;9.38;;;8.90;83.00;;;;;;5093997;28;20032;-69
2020/12/03 09:17:33;;;;;;;14.70;6.03;;;8.90;83.00;;;;;;5093249;28;20445;-69
2020/12/03 09:20:04;;;;;;;29.48;12.80;;;8.90;83.00;;;;;;5093651;28;20048;-69
2020/12/03 09:22:30;;;;;;;17.45;8.98;;;9.00;83.10;;;;;;5093611;28;20039;-69
2020/12/03 09:24:57;;;;;;;24.13;9.65;;;8.90;83.00;;;;;;5093218;28;20074;-69
2020/12/03 09:27:23;;;;;;;27.13;10.93;;;9.00;83.10;;;;;;5093900;28;20085;-69
2020/12/03 09:29:52;;;;;;;10.25;5.10;;;8.90;83.00;;;;;;5093836;28;20107;-69
2020/12/03 09:32:21;;;;;;;20.05;10.43;;;9.00;82.90;;;;;;5092999;28;20545;-69
2020/12/03 09:34:49;;;;;;;11.93;4.75;;;9.00;82.80;;;;;;5093405;28;20480;-69
2020/12/03 09:37:14;;;;;;;22.45;10.80;;;9.00;82.80;;;;;;5093785;28;20028;-69
2020/12/03 09:39:40;;;;;;;20.58;8.43;;;9.00;82.80;;;;;;5093130;28;20430;-69
2020/12/03 09:42:14;;;;;;;33.75;15.65;;;9.00;82.80;;;;;;5093732;28;20040;-69
2020/12/03 09:44:44;;;;;;;18.08;9.52;;;9.00;82.80;;;;;;5093491;28;20496;-70
2020/12/03 09:47:16;;;;;;;25.63;12.77;;;9.00;82.70;;;;;;5092706;28;20529;-69
2020/12/03 09:49:46;;;;;;;27.42;12.95;;;9.10;82.80;;;;;;5093690;28;20039;-69
2020/12/03 09:52:12;;;;;;;31.08;14.73;;;9.10;82.70;;;;;;5093696;28;20111;-69
2020/12/03 09:54:39;;;;;;;19.30;9.00;;;9.20;82.60;;;;;;5092788;28;20474;-69
2020/12/03 09:57:08;;;;;;;20.50;9.35;;;9.20;82.40;;;;;;5093661;28;20028;-69
2020/12/03 09:59:36;;;;;;;32.22;15.55;;;9.20;82.30;;;;;;5092899;28;20081;-69
2020/12/03 10:02:07;;;;;;;20.83;10.02;;;9.20;82.20;;;;;;5093050;28;20483;-71
2020/12/03 10:05:13;;;;;;;30.35;13.75;;;9.20;82.20;;;;;;5093185;28;20032;-71
2020/12/03 10:08:19;;;;;;;20.27;9.13;;;9.20;82.20;;;;;;5096326;28;20441;-74
2020/12/03 10:10:59;;;;;;;27.95;12.80;;;9.30;82.10;;;;;;5097627;28;20031;-69
2020/12/03 10:13:37;;;;;;;13.43;6.15;;;9.30;82.00;;;;;;5096680;28;20395;-69
2020/12/03 10:16:07;;;;;;;17.27;8.00;;;9.20;82.00;;;;;;5097544;28;20102;-69
2020/12/03 10:18:54;;;;;;;12.43;5.45;;;9.30;81.90;;;;;;5097191;28;20047;-70
2020/12/03 10:21:21;;;;;;;19.50;7.22;;;9.30;81.80;;;;;;5096332;28;20044;-70
2020/12/03 10:23:50;;;;;;;23.92;11.88;;;9.30;81.70;;;;;;5097271;28;20044;-70
2020/12/03 10:26:23;;;;;;;26.05;10.60;;;9.30;81.80;;;;;;5097396;28;20036;-70
2020/12/03 10:28:52;;;;;;;18.25;4.70;;;9.30;81.80;;;;;;5096237;28;20119;-70
2020/12/03 10:31:21;;;;;;;14.38;6.47;;;9.40;81.90;;;;;;5097269;28;20067;-73
2020/12/03 10:33:49;;;;;;;24.27;11.02;;;9.30;81.60;;;;;;5097175;28;20024;-71
2020/12/03 10:36:39;;;;;;;27.02;12.27;;;9.40;81.70;;;;;;5096480;28;20036;-72
2020/12/03 10:39:07;;;;;;;36.35;14.48;;;9.40;81.80;;;;;;5096907;28;20020;-70
2020/12/03 10:41:37;;;;;;;28.42;10.68;;;9.40;81.70;;;;;;5095909;28;20124;-69
2020/12/03 10:44:08;;;;;;;12.27;6.07;;;9.50;81.70;;;;;;5096819;28;20040;-69
2020/12/03 10:46:44;;;;;;;16.52;7.28;;;9.50;81.60;;;;;;5097019;28;20115;-70
2020/12/03 10:49:15;;;;;;;24.80;11.25;;;9.50;81.50;;;;;;5096135;28;20035;-69
2020/12/03 10:51:45;;;;;;;27.10;10.45;;;9.60;81.40;;;;;;5096669;28;20028;-69
2020/12/03 10:54:16;;;;;;;16.77;4.57;;;9.60;81.40;;;;;;5096535;28;20102;-70
2020/12/03 10:56:45;;;;;;;15.00;6.28;;;9.60;81.30;;;;;;5096043;28;20031;-70
2020/12/03 10:59:20;;;;;;;28.27;11.88;;;9.70;81.20;;;;;;5096507;28;20024;-69
2020/12/03 11:01:52;;;;;;;27.63;10.57;;;9.70;81.10;;;;;;5096418;28;20072;-69
2020/12/03 11:04:19;;;;;;;24.90;11.43;;;9.70;81.00;;;;;;5095614;28;20491;-69
2020/12/03 11:06:45;;;;;;;17.67;7.65;;;9.70;81.00;;;;;;5096499;28;20103;-69
2020/12/03 11:09:20;;;;;;;16.00;7.43;;;9.80;81.30;;;;;;5096514;28;20043;-69
2020/12/03 11:11:49;;;;;;;20.27;8.52;;;9.80;80.80;;;;;;5095747;28;20032;-69
2020/12/03 11:14:16;;;;;;;13.27;6.28;;;9.70;80.60;;;;;;5096314;28;20024;-68
2020/12/03 11:16:58;;;;;;;23.45;10.32;;;9.80;80.70;;;;;;5095638;28;20036;-70
2020/12/03 11:19:26;;;;;;;17.83;8.38;;;9.80;80.70;;;;;;5096220;28;20162;-70
2020/12/03 11:22:12;;;;;;;15.60;6.80;;;9.80;80.60;;;;;;5096224;28;20079;-70
2020/12/03 11:24:47;;;;;;;18.17;8.20;;;9.80;80.60;;;;;;5084467;28;20036;-69
2020/12/03 11:27:22;;;;;;;15.68;7.63;;;9.80;80.50;;;;;;5096077;28;20530;-69
2020/12/03 11:29:48;;;;;;;21.30;9.55;;;9.80;80.40;;;;;;5094669;28;20034;-69
2020/12/03 11:32:46;;;;;;;17.13;7.75;;;9.80;80.40;;;;;;5095066;28;20032;-70
2020/12/03 11:35:24;;;;;;;17.35;7.80;;;9.80;80.50;;;;;;5095589;28;20043;-69
2020/12/03 11:37:52;;;;;;;18.15;7.85;;;9.90;80.30;;;;;;5094331;28;20044;-69
2020/12/03 11:40:39;;;;;;;15.25;6.65;;;9.90;80.30;;;;;;5095906;28;20471;-70
2020/12/03 11:48:52;;;;;;;10.00;4.28;;;9.80;80.10;;;;;;5053211;28;20139;-70
2020/12/03 11:51:27;;;;;;;13.98;6.60;;;9.90;80.20;;;;;;5077672;28;20058;-71
2020/12/03 11:54:07;;;;;;;14.02;7.13;;;9.90;80.20;;;;;;5094741;28;20067;-69
2020/12/03 11:56:34;;;;;;;12.13;6.20;;;9.90;80.10;;;;;;5095186;28;20402;-69
2020/12/03 11:59:14;;;;;;;13.50;6.88;;;9.90;80.10;;;;;;5094816;28;20115;-69
2020/12/03 12:01:40;;;;;;;15.43;7.10;;;9.90;80.20;;;;;;5095153;28;20537;-69
2020/12/03 12:04:10;;;;;;;3.97;1.83;;;9.90;80.10;;;;;;5095090;28;20084;-69
2020/12/03 12:06:58;;;;;;;8.88;4.65;;;9.90;80.10;;;;;;5094291;28;20031;-69
2020/12/03 12:09:31;;;;;;;5.70;3.05;;;9.90;80.00;;;;;;5095369;28;20032;-71
2020/12/03 12:11:57;;;;;;;8.82;4.07;;;9.90;80.00;;;;;;5095322;28;20035;-70
2020/12/03 12:14:23;;;;;;;4.57;2.20;;;9.90;80.00;;;;;;5094085;28;20040;-70
2020/12/03 12:16:49;;;;;;;4.30;2.30;;;9.90;80.00;;;;;;5094960;28;20074;-70
2020/12/03 12:19:15;;;;;;;6.07;3.17;;;9.90;79.90;;;;;;5094754;28;20498;-70
2020/12/03 12:21:40;;;;;;;10.15;5.72;;;9.90;79.90;;;;;;5094025;28;20028;-71
2020/12/03 12:24:06;;;;;;;5.40;2.65;;;9.90;79.90;;;;;;5095089;28;20032;-70
2020/12/03 12:26:31;;;;;;;11.82;5.45;;;9.90;80.00;;;;;;5094828;28;20507;-70
2020/12/03 12:28:57;;;;;;;7.95;3.53;;;9.80;80.10;;;;;;5093579;28;20032;-70
2020/12/03 12:31:24;;;;;;;7.00;3.20;;;9.80;80.30;;;;;;5091766;28;20032;-68
2020/12/03 12:33:51;;;;;;;10.50;5.55;;;9.80;80.40;;;;;;5092894;28;20048;-69
2020/12/03 12:36:17;;;;;;;11.18;5.65;;;9.80;80.70;;;;;;5093128;28;20031;-69
2020/12/03 12:38:42;;;;;;;11.52;5.13;;;9.70;80.60;;;;;;5094746;28;20039;-69
2020/12/03 12:41:09;;;;;;;9.55;4.70;;;9.70;80.60;;;;;;5090750;28;20028;-69
2020/12/03 12:43:34;;;;;;;14.55;5.65;;;9.70;80.70;;;;;;5090731;28;20036;-68
2020/12/03 12:46:00;;;;;;;9.45;4.30;;;9.70;80.70;;;;;;5090509;28;20035;-68
2020/12/03 12:48:26;;;;;;;12.15;4.78;;;9.80;80.70;;;;;;5091093;28;20881;-68
2020/12/03 12:50:51;;;;;;;9.75;4.97;;;9.80;80.70;;;;;;5073422;28;20537;-70
2020/12/03 12:53:17;;;;;;;10.80;6.45;;;9.80;80.40;;;;;;5073429;28;20039;-71
2020/12/03 12:55:42;;;;;;;8.05;3.45;;;9.80;80.40;;;;;;5072521;28;20032;-70
2020/12/03 12:58:08;;;;;;;2.75;1.08;;;9.80;80.50;;;;;;5073053;28;20050;-73
2020/12/03 13:00:34;;;;;;;8.15;4.18;;;9.70;80.50;;;;;;5073275;28;20388;-71
2020/12/03 13:02:59;;;;;;;10.65;3.15;;;9.70;80.60;;;;;;5072229;28;20067;-72
2020/12/03 13:05:25;;;;;;;10.65;5.18;;;9.70;80.70;;;;;;5073098;28;20028;-68
2020/12/03 13:07:51;;;;;;;13.15;5.50;;;9.70;80.80;;;;;;5073396;28;20028;-70
2020/12/03 13:10:18;;;;;;;8.63;3.85;;;9.70;80.90;;;;;;5072529;28;20472;-72
2020/12/03 13:12:44;;;;;;;11.85;6.32;;;9.70;80.90;;;;;;5073190;28;20369;-69
2020/12/03 13:15:10;;;;;;;11.70;6.68;;;9.70;80.80;;;;;;5072206;28;20070;-70